Time;durP1;ratioP1;P1;durP2;ratioP2;P2;SDS_P1;SDS_P2;PMS_P1;PMS_P2;Temp;Humidity;BMP_temperature;BMP_pressure;BME280_temperature;BME280_humidity;BME280_pressure;Samples;Min_cycle;Max_cycle;Signal;HPM_P1;HPM_P2
2024/04/18 00:01:54;;;;;;;7.93;4.78;;;3.90;99.90;;;;;;5548990;25;20325;-45
2024/04/18 00:04:22;;;;;;;8.02;4.88;;;3.90;99.90;;;;;;5549064;25;20029;-44
2024/04/18 00:06:58;;;;;;;7.60;4.30;;;3.90;99.90;;;;;;5523664;25;20012;-46
2024/04/18 00:09:25;;;;;;;9.20;4.82;;;3.90;99.90;;;;;;5543717;25;20005;-44
2024/04/18 00:11:53;;;;;;;9.55;4.90;;;3.90;99.90;;;;;;5557021;25;20103;-43
2024/04/18 00:14:20;;;;;;;8.32;4.55;;;3.90;99.90;;;;;;5556923;25;20107;-45
2024/04/18 00:16:47;;;;;;;8.40;5.10;;;3.90;99.90;;;;;;5552757;25;20357;-44
2024/04/18 00:19:17;;;;;;;6.95;4.43;;;3.90;99.90;;;;;;5542456;25;20587;-44
2024/04/18 00:22:02;;;;;;;7.15;4.50;;;3.90;99.90;;;;;;5548742;25;20560;-45
2024/04/18 00:24:30;;;;;;;7.43;4.78;;;4.00;99.90;;;;;;5544681;25;20011;-44
2024/04/18 00:26:57;;;;;;;7.03;4.50;;;4.10;99.90;;;;;;5543476;25;20004;-45
2024/04/18 00:29:37;;;;;;;7.28;4.43;;;4.10;99.90;;;;;;5549559;25;20005;-49
2024/04/18 00:32:16;;;;;;;7.03;3.97;;;4.20;99.90;;;;;;5549144;25;20004;-45
2024/04/18 00:35:06;;;;;;;8.82;4.57;;;4.30;99.90;;;;;;5418850;26;20007;-45
2024/04/18 00:37:36;;;;;;;9.50;5.10;;;4.40;99.90;;;;;;5452944;26;20451;-44
2024/04/18 00:40:04;;;;;;;10.48;5.35;;;4.40;99.90;;;;;;5465035;26;19998;-46
2024/04/18 00:42:35;;;;;;;9.70;5.40;;;4.50;99.90;;;;;;5455664;26;20357;-44
2024/04/18 00:45:06;;;;;;;7.68;4.80;;;4.60;99.90;;;;;;5464716;26;20013;-43
2024/04/18 00:47:46;;;;;;;7.30;4.80;;;4.70;99.90;;;;;;5457633;26;20007;-43
2024/04/18 00:50:15;;;;;;;8.27;4.90;;;4.80;99.90;;;;;;5460655;26;20394;-44
2024/04/18 00:52:43;;;;;;;8.70;5.10;;;4.80;99.90;;;;;;5458518;26;20060;-47
2024/04/18 00:55:29;;;;;;;6.35;4.35;;;4.80;99.90;;;;;;5456467;26;20336;-44
2024/04/18 00:58:10;;;;;;;6.60;4.22;;;4.80;99.90;;;;;;5459181;26;20480;-43
2024/04/18 01:00:41;;;;;;;7.88;4.22;;;4.90;99.90;;;;;;5466310;26;20474;-49
2024/04/18 01:03:27;;;;;;;7.85;4.32;;;4.90;99.90;;;;;;5457665;26;20522;-46
2024/04/18 01:06:15;;;;;;;6.55;4.45;;;4.90;99.90;;;;;;5460788;26;20010;-45
2024/04/18 01:09:03;;;;;;;8.00;4.30;;;5.00;99.90;;;;;;5463521;26;20057;-44
2024/04/18 01:11:30;;;;;;;7.15;4.50;;;5.00;99.90;;;;;;5472435;25;20025;-43
2024/04/18 01:14:08;;;;;;;7.82;4.57;;;5.10;99.90;;;;;;5544471;25;20103;-46
2024/04/18 01:16:54;;;;;;;8.10;4.38;;;5.10;99.90;;;;;;5543056;25;20422;-45
2024/04/18 01:19:21;;;;;;;7.85;5.00;;;5.10;99.90;;;;;;5555342;25;20008;-45
2024/04/18 01:21:48;;;;;;;5.97;3.70;;;5.10;99.90;;;;;;5545284;25;20006;-45
2024/04/18 01:24:15;;;;;;;5.78;3.88;;;5.10;99.90;;;;;;5557560;25;20000;-48
2024/04/18 01:26:42;;;;;;;6.32;3.80;;;5.10;99.90;;;;;;5561670;25;20000;-47
2024/04/18 01:29:09;;;;;;;6.55;3.95;;;5.10;99.90;;;;;;5553306;25;20387;-45
2024/04/18 01:31:56;;;;;;;6.00;3.83;;;5.10;99.90;;;;;;5552945;25;20101;-44
2024/04/18 01:34:23;;;;;;;6.32;4.40;;;5.10;99.90;;;;;;5552357;25;19997;-43
2024/04/18 01:37:12;;;;;;;7.32;4.38;;;5.10;99.90;;;;;;5552860;25;20205;-43
2024/04/18 01:39:40;;;;;;;7.00;3.95;;;5.10;99.90;;;;;;5543938;25;20004;-47
2024/04/18 01:42:07;;;;;;;6.97;4.20;;;5.10;99.90;;;;;;5548676;25;20019;-46
2024/04/18 01:44:41;;;;;;;6.78;4.35;;;5.10;99.90;;;;;;5542990;25;20012;-44
2024/04/18 01:47:27;;;;;;;7.13;4.45;;;5.10;99.90;;;;;;5530633;25;20038;-45
2024/04/18 01:50:08;;;;;;;7.38;4.28;;;5.00;99.90;;;;;;5542603;25;20260;-44
2024/04/18 01:52:39;;;;;;;8.88;4.85;;;5.00;99.90;;;;;;5556598;25;20006;-46
2024/04/18 01:55:07;;;;;;;7.75;4.15;;;4.90;99.90;;;;;;5545668;25;20015;-45
2024/04/18 01:57:40;;;;;;;7.18;4.15;;;4.70;99.90;;;;;;5543654;25;20471;-44
2024/04/18 02:00:26;;;;;;;8.18;4.35;;;4.70;99.90;;;;;;5555947;25;20005;-46
2024/04/18 02:02:54;;;;;;;6.70;4.57;;;4.50;99.90;;;;;;5544438;25;20013;-43
2024/04/18 02:05:39;;;;;;;6.43;4.10;;;4.40;99.90;;;;;;5554818;25;20005;-44
2024/04/18 02:08:16;;;;;;;6.43;4.63;;;4.40;99.90;;;;;;5546978;25;20424;-44
2024/04/18 02:10:44;;;;;;;6.93;4.43;;;4.40;99.90;;;;;;5520653;25;20001;-45
2024/04/18 02:13:34;;;;;;;11.38;4.72;;;4.40;99.90;;;;;;5555379;25;20013;-48
2024/04/18 02:16:03;;;;;;;8.00;4.50;;;4.30;99.90;;;;;;5538097;25;20005;-43
2024/04/18 02:18:48;;;;;;;6.93;4.55;;;4.30;99.90;;;;;;5547741;25;20009;-48
2024/04/18 02:21:15;;;;;;;8.43;4.45;;;4.30;99.90;;;;;;5546949;25;19996;-46
2024/04/18 02:23:52;;;;;;;7.30;4.63;;;4.30;99.90;;;;;;5555207;25;20380;-46
2024/04/18 02:26:19;;;;;;;8.30;4.65;;;4.30;99.90;;;;;;5547732;25;20295;-44
2024/04/18 02:28:46;;;;;;;9.07;4.80;;;4.30;99.90;;;;;;5553657;25;20249;-43
2024/04/18 02:31:16;;;;;;;6.65;3.90;;;4.40;99.90;;;;;;5537699;25;20469;-48
2024/04/18 02:33:49;;;;;;;6.28;4.32;;;4.50;99.90;;;;;;5538146;25;20008;-47
2024/04/18 02:36:16;;;;;;;7.75;4.53;;;4.50;99.90;;;;;;5555593;25;20887;-45
2024/04/18 02:38:43;;;;;;;8.63;4.05;;;4.60;99.90;;;;;;5546296;25;20000;-45
2024/04/18 02:41:11;;;;;;;9.18;4.60;;;4.60;99.90;;;;;;5556904;25;20390;-43
2024/04/18 02:43:51;;;;;;;7.57;4.55;;;4.60;99.90;;;;;;5530924;25;20416;-47
2024/04/18 02:46:19;;;;;;;6.47;4.70;;;4.60;99.90;;;;;;5547046;25;20005;-44
2024/04/18 02:49:05;;;;;;;8.00;4.30;;;4.70;99.90;;;;;;5547303;25;20000;-45
2024/04/18 02:51:32;;;;;;;6.50;4.15;;;4.80;99.90;;;;;;5552066;25;20034;-46
2024/04/18 02:54:12;;;;;;;7.25;3.90;;;4.80;99.90;;;;;;5537971;25;20314;-49
2024/04/18 02:56:40;;;;;;;7.95;5.40;;;4.90;99.90;;;;;;5553816;25;20426;-45
2024/04/18 02:59:10;;;;;;;9.63;4.80;;;4.90;99.90;;;;;;5549676;25;20001;-44
2024/04/18 03:01:50;;;;;;;8.13;5.18;;;4.90;99.90;;;;;;5545673;25;20012;-47
2024/04/18 03:04:18;;;;;;;7.38;4.47;;;4.80;99.90;;;;;;5551472;25;20013;-46
2024/04/18 03:06:47;;;;;;;8.20;5.00;;;4.90;99.90;;;;;;5547369;25;20011;-46
2024/04/18 03:09:15;;;;;;;8.25;4.78;;;4.80;99.90;;;;;;5517043;25;20371;-43
2024/04/18 03:11:54;;;;;;;8.60;5.20;;;4.90;99.90;;;;;;5561938;25;20004;-45
2024/04/18 03:14:42;;;;;;;8.90;5.53;;;4.80;99.90;;;;;;5556767;25;20475;-45
2024/04/18 03:17:09;;;;;;;9.15;5.68;;;4.80;99.90;;;;;;5543128;25;20037;-43
2024/04/18 03:19:55;;;;;;;7.45;5.20;;;4.70;99.90;;;;;;5559127;25;20004;-46
2024/04/18 03:22:25;;;;;;;12.70;5.43;;;4.70;99.90;;;;;;5528608;25;19997;-43
2024/04/18 03:24:59;;;;;;;9.10;5.57;;;4.70;99.90;;;;;;5558240;25;20619;-46
2024/04/18 03:27:30;;;;;;;8.23;5.43;;;4.70;99.90;;;;;;5555113;25;20012;-44
2024/04/18 03:29:57;;;;;;;9.70;5.45;;;4.60;99.90;;;;;;5517217;25;20011;-43
2024/04/18 03:32:35;;;;;;;8.88;5.60;;;4.60;99.90;;;;;;5555000;25;20032;-47
2024/04/18 03:35:03;;;;;;;8.40;5.65;;;4.60;99.90;;;;;;5547197;25;20015;-46
2024/04/18 03:37:32;;;;;;;8.02;5.47;;;4.60;99.90;;;;;;5554618;25;20017;-44
2024/04/18 03:40:24;;;;;;;10.73;5.93;;;4.60;99.90;;;;;;5547667;25;20442;-45
2024/04/18 03:43:01;;;;;;;10.18;5.28;;;4.60;99.90;;;;;;5544126;25;20320;-45
2024/04/18 03:45:28;;;;;;;7.97;5.15;;;4.50;99.90;;;;;;5541893;25;20001;-45
2024/04/18 03:48:15;;;;;;;9.02;6.05;;;4.40;99.90;;;;;;5558234;25;20021;-40
2024/04/18 03:50:42;;;;;;;10.93;5.82;;;4.50;99.90;;;;;;5552451;25;20044;-43
2024/04/18 03:53:21;;;;;;;9.15;6.20;;;4.50;99.90;;;;;;5552734;25;20342;-46
2024/04/18 03:56:07;;;;;;;9.93;5.85;;;4.50;99.90;;;;;;5540201;25;19998;-43
2024/04/18 03:58:34;;;;;;;10.75;5.95;;;4.40;99.90;;;;;;5537486;25;20001;-46
2024/04/18 04:01:01;;;;;;;9.25;6.20;;;4.40;99.90;;;;;;5545436;25;20000;-48
2024/04/18 04:03:28;;;;;;;10.20;6.20;;;4.40;99.90;;;;;;5544517;25;20000;-44
2024/04/18 04:05:55;;;;;;;9.60;6.03;;;4.40;99.90;;;;;;5546647;25;19997;-47
2024/04/18 04:08:22;;;;;;;10.02;6.55;;;4.30;99.90;;;;;;5548308;25;20012;-42
2024/04/18 04:11:08;;;;;;;9.05;6.03;;;4.30;99.90;;;;;;5544910;25;20016;-43
2024/04/18 04:13:36;;;;;;;9.30;5.80;;;4.30;99.90;;;;;;5556661;25;20060;-44
2024/04/18 04:16:15;;;;;;;9.98;6.40;;;4.40;99.90;;;;;;5541715;25;20016;-44
2024/04/18 04:18:43;;;;;;;11.32;6.05;;;4.30;99.90;;;;;;5532560;25;20082;-44
2024/04/18 04:21:36;;;;;;;11.25;6.35;;;4.40;99.90;;;;;;5529630;25;20120;-44
2024/04/18 04:24:03;;;;;;;9.75;6.20;;;4.40;99.90;;;;;;5545947;25;20015;-45
2024/04/18 04:26:50;;;;;;;9.13;6.28;;;4.50;99.90;;;;;;5550645;25;20000;-45
2024/04/18 04:29:18;;;;;;;9.88;6.82;;;4.50;99.90;;;;;;5542859;25;19992;-45
2024/04/18 04:31:45;;;;;;;11.55;6.63;;;4.50;99.90;;;;;;5550248;25;20029;-47
2024/04/18 04:34:12;;;;;;;11.60;6.57;;;4.50;99.90;;;;;;5538828;25;20028;-46
2024/04/18 04:36:39;;;;;;;12.07;6.32;;;4.40;99.90;;;;;;5544747;25;19997;-44
2024/04/18 04:39:07;;;;;;;12.70;6.82;;;4.50;99.90;;;;;;5544066;25;20000;-47
2024/04/18 04:41:38;;;;;;;9.65;6.75;;;4.50;99.90;;;;;;5557471;25;20001;-46
2024/04/18 04:44:05;;;;;;;9.43;6.85;;;4.40;99.90;;;;;;5546609;25;20505;-44
2024/04/18 04:46:52;;;;;;;8.38;6.47;;;4.40;99.90;;;;;;5555327;25;20019;-48
2024/04/18 04:49:20;;;;;;;9.77;7.15;;;4.40;99.90;;;;;;5550311;25;20057;-44
2024/04/18 04:52:01;;;;;;;8.50;6.32;;;4.50;99.90;;;;;;5541858;25;19996;-48
2024/04/18 04:54:42;;;;;;;10.55;7.20;;;4.50;99.90;;;;;;5540792;25;20374;-48
2024/04/18 04:57:11;;;;;;;10.13;6.85;;;4.40;99.90;;;;;;5498573;25;20015;-44
2024/04/18 04:59:38;;;;;;;9.82;6.80;;;4.50;99.90;;;;;;5550376;25;20017;-48
2024/04/18 05:02:06;;;;;;;10.95;6.50;;;4.50;99.90;;;;;;5543678;25;20021;-46
2024/04/18 05:04:49;;;;;;;9.48;6.88;;;4.50;99.90;;;;;;5546212;25;20001;-43
2024/04/18 05:07:30;;;;;;;8.80;6.57;;;4.60;99.90;;;;;;5545213;25;20342;-43
2024/04/18 05:10:18;;;;;;;9.02;6.10;;;4.60;99.90;;;;;;5540756;25;20014;-47
2024/04/18 05:12:45;;;;;;;12.35;6.88;;;4.60;99.90;;;;;;5545256;25;20080;-46
2024/04/18 05:15:32;;;;;;;11.10;7.22;;;4.50;99.90;;;;;;5556226;25;20009;-43
2024/04/18 05:18:00;;;;;;;12.13;7.63;;;4.40;99.90;;;;;;5556728;25;20013;-45
2024/04/18 05:20:27;;;;;;;10.77;7.22;;;4.40;99.90;;;;;;5541745;25;20352;-44
2024/04/18 05:22:54;;;;;;;10.65;7.30;;;4.50;99.90;;;;;;5553736;25;20000;-46
2024/04/18 05:25:22;;;;;;;9.73;6.63;;;4.60;99.90;;;;;;5545892;25;20005;-45
2024/04/18 05:28:04;;;;;;;13.60;6.88;;;4.60;99.90;;;;;;5545027;25;20469;-44
2024/04/18 05:33:19;;;;;;;13.38;7.05;;;4.80;99.90;;;;;;5545705;25;19996;-42
2024/04/18 05:35:47;;;;;;;7.63;6.22;;;4.80;99.90;;;;;;5536174;25;20005;-44
2024/04/18 05:38:14;;;;;;;10.23;6.53;;;4.80;99.90;;;;;;5554798;25;19996;-46
2024/04/18 05:40:41;;;;;;;8.43;5.88;;;4.80;99.90;;;;;;5552860;25;20004;-49
2024/04/18 05:43:08;;;;;;;10.65;6.07;;;4.80;99.90;;;;;;5549001;25;20350;-46
2024/04/18 05:45:48;;;;;;;9.50;6.20;;;4.80;99.90;;;;;;5557074;25;20060;-47
2024/04/18 05:48:15;;;;;;;7.85;5.68;;;4.70;99.90;;;;;;5542047;25;19994;-43
2024/04/18 05:50:42;;;;;;;7.68;5.65;;;4.80;99.90;;;;;;5549976;25;20015;-44
2024/04/18 05:53:21;;;;;;;8.38;6.00;;;4.70;99.90;;;;;;5540947;25;20015;-45
2024/04/18 05:55:52;;;;;;;8.80;4.75;;;4.70;99.90;;;;;;5546668;25;20454;-46
2024/04/18 05:58:19;;;;;;;9.73;5.60;;;4.70;99.90;;;;;;5543338;25;20037;-46
2024/04/18 06:00:52;;;;;;;7.60;5.38;;;4.60;99.90;;;;;;5531152;25;20009;-47
2024/04/18 06:03:20;;;;;;;6.60;4.53;;;4.60;99.90;;;;;;5534751;25;20026;-44
2024/04/18 06:05:47;;;;;;;6.22;4.38;;;4.70;99.90;;;;;;5541242;25;19997;-47
2024/04/18 06:08:14;;;;;;;7.18;4.43;;;4.70;99.90;;;;;;5548143;25;20346;-45
2024/04/18 06:10:42;;;;;;;8.52;5.57;;;4.60;99.90;;;;;;5535312;25;20020;-48
2024/04/18 06:13:19;;;;;;;6.90;4.80;;;4.60;99.90;;;;;;5534719;25;20520;-46
2024/04/18 06:15:47;;;;;;;7.47;4.65;;;4.60;99.90;;;;;;5543656;25;20007;-42
2024/04/18 06:18:15;;;;;;;7.30;4.63;;;4.60;99.90;;;;;;5533816;25;20017;-44
2024/04/18 06:20:47;;;;;;;6.68;4.68;;;4.70;99.90;;;;;;5550413;25;20473;-42
2024/04/18 06:23:14;;;;;;;7.47;4.60;;;4.80;99.90;;;;;;5555535;25;20744;-46
2024/04/18 06:25:42;;;;;;;7.20;5.30;;;4.90;99.90;;;;;;5542214;25;20031;-46
2024/04/18 06:28:11;;;;;;;7.57;5.13;;;5.00;99.90;;;;;;5541111;25;20009;-48
2024/04/18 06:30:39;;;;;;;7.45;5.10;;;5.20;99.90;;;;;;5538032;25;20046;-43
2024/04/18 06:33:10;;;;;;;;;;;5.10;99.90;;;;;;5549354;25;20001;-45
2024/04/18 06:35:37;;;;;;;7.10;5.00;;;5.20;99.90;;;;;;5548444;25;19930;-48
2024/04/18 06:38:06;;;;;;;8.52;5.05;;;5.40;99.90;;;;;;5557433;25;20771;-43
2024/04/18 06:40:33;;;;;;;9.55;5.40;;;5.40;99.90;;;;;;5557544;25;20311;-46
2024/04/18 06:43:00;;;;;;;8.82;5.60;;;5.30;99.90;;;;;;5546061;25;20385;-47
2024/04/18 06:45:28;;;;;;;7.63;5.57;;;5.30;99.90;;;;;;5540938;25;20013;-47
2024/04/18 06:47:55;;;;;;;7.45;5.45;;;5.40;99.90;;;;;;5540983;25;20518;-44
2024/04/18 06:50:23;;;;;;;7.97;5.30;;;5.30;99.90;;;;;;5540076;25;20008;-46
2024/04/18 06:52:53;;;;;;;8.27;5.60;;;5.30;99.90;;;;;;5549632;25;20075;-45
2024/04/18 06:55:21;;;;;;;8.65;5.25;;;5.50;99.90;;;;;;5533711;25;19997;-47
2024/04/18 06:57:49;;;;;;;7.57;4.70;;;5.50;99.90;;;;;;5542089;25;20040;-47
2024/04/18 07:00:16;;;;;;;8.88;5.13;;;5.60;99.90;;;;;;5539856;25;20012;-44
2024/04/18 07:02:44;;;;;;;5.80;4.38;;;5.90;99.90;;;;;;5535076;25;20116;-45
2024/04/18 07:05:30;;;;;;;6.63;4.50;;;6.10;99.90;;;;;;5548696;25;20346;-47
2024/04/18 07:08:27;;;;;;;6.72;4.55;;;6.40;99.90;;;;;;5525615;25;20017;-44
2024/04/18 07:10:54;;;;;;;7.10;5.35;;;6.50;99.90;;;;;;5531561;25;20002;-46
2024/04/18 07:13:29;;;;;;;5.35;4.35;;;6.70;99.90;;;;;;5537362;25;20342;-44
2024/04/18 07:16:02;;;;;;;7.55;4.72;;;7.00;99.90;;;;;;5528085;25;20001;-44
2024/04/18 07:18:48;;;;;;;7.80;4.65;;;7.10;99.90;;;;;;5537623;25;20428;-44
2024/04/18 07:21:16;;;;;;;6.82;4.90;;;7.20;99.90;;;;;;5532860;25;20008;-45
2024/04/18 07:23:43;;;;;;;6.63;5.10;;;7.00;99.90;;;;;;5537403;25;20371;-44
2024/04/18 07:26:10;;;;;;;9.40;6.05;;;7.30;99.90;;;;;;5549980;25;20017;-45
2024/04/18 07:28:37;;;;;;;6.25;4.68;;;7.30;99.90;;;;;;5533168;25;20012;-50
2024/04/18 07:31:04;;;;;;;6.80;4.85;;;7.20;99.90;;;;;;5546262;25;19997;-45
2024/04/18 07:33:33;;;;;;;7.53;5.18;;;7.10;99.90;;;;;;5553146;25;20033;-45
2024/04/18 07:36:15;;;;;;;6.43;4.93;;;7.10;99.90;;;;;;5541484;25;20001;-46
2024/04/18 07:38:42;;;;;;;8.55;5.22;;;7.20;99.90;;;;;;5537875;25;20007;-43
2024/04/18 07:41:09;;;;;;;6.80;5.15;;;7.10;99.90;;;;;;5545551;25;20001;-45
2024/04/18 07:43:36;;;;;;;7.03;4.75;;;7.20;99.90;;;;;;5544532;25;20061;-46
2024/04/18 07:46:04;;;;;;;7.47;5.50;;;7.20;99.90;;;;;;5535696;25;20012;-43
2024/04/18 07:48:31;;;;;;;7.07;4.70;;;7.10;99.90;;;;;;5544046;25;20009;-44
2024/04/18 07:50:58;;;;;;;8.85;5.60;;;6.90;99.90;;;;;;5545452;25;20147;-46
2024/04/18 07:53:26;;;;;;;6.72;5.07;;;6.90;99.90;;;;;;5553210;25;20001;-44
2024/04/18 07:55:53;;;;;;;8.18;5.25;;;7.00;99.90;;;;;;5541975;25;20025;-47
2024/04/18 07:58:21;;;;;;;8.77;5.43;;;7.10;99.90;;;;;;5538028;25;20501;-43
2024/04/18 08:00:50;;;;;;;8.82;5.75;;;7.50;99.90;;;;;;5559090;25;20044;-48
2024/04/18 08:03:20;;;;;;;8.00;6.03;;;7.70;99.90;;;;;;5544417;25;20006;-44
2024/04/18 08:05:51;;;;;;;7.67;6.13;;;8.00;99.90;;;;;;5526768;25;20009;-44
2024/04/18 08:08:22;;;;;;;6.97;5.43;;;8.30;99.90;;;;;;5552471;25;20099;-48
2024/04/18 08:10:55;;;;;;;7.20;5.70;;;8.20;99.90;;;;;;5533246;25;20026;-48
2024/04/18 08:13:42;;;;;;;7.93;5.60;;;8.40;99.90;;;;;;5542504;25;20480;-49
2024/04/18 08:16:17;;;;;;;7.68;5.50;;;8.50;99.90;;;;;;5535613;25;20016;-45
2024/04/18 08:18:45;;;;;;;8.63;5.88;;;8.60;99.90;;;;;;5556501;25;20284;-45
2024/04/18 08:21:13;;;;;;;7.72;5.22;;;8.70;99.90;;;;;;5544078;25;20011;-44
2024/04/18 08:23:40;;;;;;;8.68;5.68;;;9.10;99.90;;;;;;5562097;25;20014;-45
2024/04/18 08:26:07;;;;;;;8.18;6.03;;;9.30;99.90;;;;;;5539178;25;20124;-46
2024/04/18 08:28:34;;;;;;;8.82;6.40;;;9.40;99.90;;;;;;5556491;25;20001;-45
2024/04/18 08:31:01;;;;;;;8.77;6.72;;;9.50;99.90;;;;;;5546266;25;20357;-47
2024/04/18 08:33:28;;;;;;;10.90;7.13;;;9.60;99.90;;;;;;5540614;25;19997;-45
2024/04/18 08:35:55;;;;;;;12.18;7.93;;;9.50;99.90;;;;;;5555032;25;20073;-45
2024/04/18 08:38:22;;;;;;;9.90;7.30;;;9.30;99.90;;;;;;5533446;25;20006;-47
2024/04/18 08:40:51;;;;;;;10.05;6.97;;;9.60;99.90;;;;;;5532450;25;20334;-46
2024/04/18 08:43:18;;;;;;;9.07;6.97;;;9.70;99.90;;;;;;5534425;25;20021;-47
2024/04/18 08:45:46;;;;;;;9.88;7.78;;;9.70;99.90;;;;;;5539404;25;20492;-44
2024/04/18 08:48:14;;;;;;;10.48;7.03;;;9.50;99.90;;;;;;5538325;25;20306;-49
2024/04/18 08:50:43;;;;;;;14.23;7.13;;;9.30;99.90;;;;;;5536946;25;19993;-47
2024/04/18 08:53:10;;;;;;;9.23;7.45;;;9.30;99.90;;;;;;5547267;25;20016;-46
2024/04/18 08:55:41;;;;;;;8.88;6.95;;;9.60;99.90;;;;;;5550007;25;20480;-46
2024/04/18 08:58:10;;;;;;;10.20;7.30;;;9.80;99.90;;;;;;5545389;25;20005;-46
2024/04/18 09:00:45;;;;;;;8.48;6.55;;;9.70;99.90;;;;;;5531005;25;20477;-45
2024/04/18 09:03:12;;;;;;;9.00;5.68;;;9.70;99.90;;;;;;5544579;25;19997;-44
2024/04/18 09:05:42;;;;;;;7.80;5.80;;;10.00;99.90;;;;;;5549595;25;20022;-50
2024/04/18 09:08:12;;;;;;;7.05;6.10;;;10.10;99.90;;;;;;5535078;25;20001;-46
2024/04/18 09:10:42;;;;;;;6.90;5.70;;;10.20;99.90;;;;;;5569758;25;20441;-45
2024/04/18 09:13:10;;;;;;;9.77;6.03;;;10.00;99.90;;;;;;5531624;25;20249;-46
2024/04/18 09:15:37;;;;;;;9.35;5.50;;;10.30;99.90;;;;;;5562407;25;20220;-49
2024/04/18 09:18:06;;;;;;;6.60;5.43;;;10.20;99.90;;;;;;5559891;25;20431;-48
2024/04/18 09:20:36;;;;;;;8.43;6.10;;;10.30;99.90;;;;;;5554654;25;20000;-49
2024/04/18 09:23:04;;;;;;;6.53;5.28;;;10.70;99.90;;;;;;5544657;25;20473;-45
2024/04/18 09:25:31;;;;;;;7.78;5.78;;;10.80;99.90;;;;;;5538892;25;20020;-45
2024/04/18 09:28:04;;;;;;;6.75;5.50;;;10.60;99.90;;;;;;5539149;25;20150;-43
2024/04/18 09:30:31;;;;;;;6.05;5.15;;;10.40;99.90;;;;;;5550238;25;20065;-46
2024/04/18 09:33:00;;;;;;;7.07;5.15;;;10.30;99.90;;;;;;5539329;25;20013;-45
2024/04/18 09:35:34;;;;;;;9.57;5.45;;;10.10;99.90;;;;;;5551562;25;20127;-47
2024/04/18 09:38:01;;;;;;;7.88;5.15;;;10.10;99.90;;;;;;5541441;25;19998;-44
2024/04/18 09:40:40;;;;;;;6.57;4.93;;;10.10;99.90;;;;;;5551300;25;20053;-47
2024/04/18 09:43:13;;;;;;;;;;;10.20;99.90;;;;;;5545330;25;20039;-45
2024/04/18 09:45:48;;;;;;;5.30;4.75;;;10.20;99.90;;;;;;5539402;25;20391;-44
2024/04/18 09:48:16;;;;;;;7.80;4.97;;;10.30;99.90;;;;;;5553934;25;20002;-47
2024/04/18 09:50:45;;;;;;;7.35;5.68;;;10.30;99.90;;;;;;5549400;25;20004;-47
2024/04/18 09:53:14;;;;;;;6.80;5.28;;;10.30;99.90;;;;;;5550168;25;20012;-43
2024/04/18 09:55:41;;;;;;;9.15;6.10;;;9.90;99.90;;;;;;5544892;25;19996;-45
2024/04/18 09:58:10;;;;;;;12.10;6.72;;;9.70;99.90;;;;;;5535826;25;20517;-46
2024/04/18 10:00:37;;;;;;;6.88;5.10;;;9.90;99.90;;;;;;5545515;25;20000;-46
2024/04/18 10:03:06;;;;;;;8.55;5.10;;;10.10;99.90;;;;;;5536519;25;20394;-46
2024/04/18 10:05:36;;;;;;;7.85;5.15;;;10.30;99.90;;;;;;5541200;25;19996;-43
2024/04/18 10:08:04;;;;;;;9.77;4.53;;;10.50;99.90;;;;;;5538018;25;20001;-41
2024/04/18 10:10:32;;;;;;;5.97;4.78;;;10.30;99.90;;;;;;5540894;25;19998;-42
2024/04/18 10:12:59;;;;;;;5.57;4.40;;;10.40;99.90;;;;;;5551791;25;20456;-48
2024/04/18 10:15:26;;;;;;;5.85;4.88;;;10.60;99.90;;;;;;5544717;25;20012;-43
2024/04/18 10:17:53;;;;;;;7.18;4.90;;;10.90;99.90;;;;;;5538565;25;20012;-45
2024/04/18 10:20:27;;;;;;;7.38;5.50;;;11.40;99.90;;;;;;5538742;25;20020;-50
2024/04/18 10:22:58;;;;;;;7.47;5.05;;;11.60;99.90;;;;;;5536194;25;20011;-49
2024/04/18 10:25:25;;;;;;;9.75;5.15;;;11.50;99.90;;;;;;5546740;25;20015;-42
2024/04/18 10:27:52;;;;;;;6.97;5.50;;;11.30;99.90;;;;;;5547436;25;20028;-45
2024/04/18 10:30:22;;;;;;;5.78;5.13;;;11.40;99.90;;;;;;5558542;25;20012;-48
2024/04/18 10:32:52;;;;;;;6.18;5.18;;;11.60;99.90;;;;;;5539508;25;20077;-45
2024/04/18 10:35:20;;;;;;;6.25;5.53;;;11.70;99.90;;;;;;5551897;25;20020;-44
2024/04/18 10:37:50;;;;;;;5.90;5.30;;;11.90;99.90;;;;;;5553199;25;20011;-47
2024/04/18 10:40:17;;;;;;;7.20;5.78;;;12.00;99.90;;;;;;5542724;25;19999;-45
2024/04/18 10:42:44;;;;;;;6.35;5.10;;;12.10;99.90;;;;;;5535655;25;20004;-49
2024/04/18 10:45:14;;;;;;;6.60;4.80;;;12.00;99.90;;;;;;5544538;25;20072;-44
2024/04/18 10:47:42;;;;;;;5.50;4.90;;;12.10;99.90;;;;;;5530810;25;20122;-45
2024/04/18 10:50:10;;;;;;;6.55;5.00;;;12.10;99.90;;;;;;5542759;25;20176;-46
2024/04/18 10:52:37;;;;;;;5.70;5.10;;;12.20;99.90;;;;;;5538514;25;20099;-46
2024/04/18 10:55:04;;;;;;;5.82;4.80;;;12.20;99.90;;;;;;5531911;25;20427;-44
2024/04/18 10:57:31;;;;;;;6.60;4.80;;;12.10;99.90;;;;;;5548045;25;20389;-49
2024/04/18 10:59:58;;;;;;;7.78;5.43;;;12.10;99.90;;;;;;5530252;25;20023;-47
2024/04/18 11:02:26;;;;;;;8.48;6.10;;;11.50;99.90;;;;;;5531122;25;20048;-45
2024/04/18 11:04:55;;;;;;;10.77;5.85;;;11.50;99.90;;;;;;5553655;25;20065;-48
2024/04/18 11:07:42;;;;;;;9.50;5.97;;;11.60;99.90;;;;;;5552922;25;20010;-46
2024/04/18 11:10:10;;;;;;;6.55;5.45;;;11.20;99.90;;;;;;5534932;25;20078;-44
2024/04/18 11:12:38;;;;;;;6.22;5.53;;;11.00;99.90;;;;;;5549697;25;20136;-46
2024/04/18 11:15:05;;;;;;;7.93;5.40;;;11.10;99.90;;;;;;5544763;25;19997;-47
2024/04/18 11:17:36;;;;;;;6.68;5.45;;;11.30;99.90;;;;;;5536142;25;20065;-45
2024/04/18 11:20:04;;;;;;;6.82;5.07;;;11.40;99.90;;;;;;5553167;25;20330;-46
2024/04/18 11:22:31;;;;;;;5.20;4.70;;;11.40;99.90;;;;;;5531411;25;20100;-42
2024/04/18 11:24:59;;;;;;;5.35;4.85;;;11.80;99.90;;;;;;5539734;25;20331;-45
2024/04/18 11:27:26;;;;;;;5.10;4.55;;;12.40;99.90;;;;;;5533188;25;19997;-45
2024/04/18 11:29:54;;;;;;;7.05;4.70;;;13.20;99.90;;;;;;5538284;25;20414;-43
2024/04/18 11:32:21;;;;;;;5.35;4.80;;;13.90;99.90;;;;;;5549782;25;20133;-44
2024/04/18 11:34:48;;;;;;;5.63;5.03;;;14.10;99.90;;;;;;5549628;25;20563;-48
2024/04/18 11:37:35;;;;;;;6.00;5.00;;;13.90;99.90;;;;;;5542839;25;19993;-48
2024/04/18 11:40:05;;;;;;;6.30;5.18;;;14.10;99.90;;;;;;5539412;25;20063;-43
2024/04/18 11:42:32;;;;;;;7.45;5.78;;;14.40;99.90;;;;;;5536553;25;20409;-49
2024/04/18 11:44:59;;;;;;;5.70;5.20;;;15.00;99.90;;;;;;5545822;25;20009;-42
2024/04/18 11:47:28;;;;;;;6.13;5.53;;;15.20;99.90;;;;;;5557780;25;20038;-44
2024/04/18 11:49:55;;;;;;;6.18;5.57;;;15.50;99.90;;;;;;5559571;25;20185;-44
2024/04/18 11:52:22;;;;;;;6.32;5.65;;;15.30;99.90;;;;;;5553298;25;20009;-43
2024/04/18 11:54:54;;;;;;;6.75;6.05;;;15.50;99.90;;;;;;5552401;25;20352;-45
2024/04/18 11:57:35;;;;;;;6.85;5.93;;;15.40;99.90;;;;;;5553674;25;20019;-45
2024/04/18 12:00:03;;;;;;;8.00;7.20;;;15.00;99.90;;;;;;5547763;25;20349;-46
2024/04/18 12:02:50;;;;;;;8.98;7.80;;;14.30;99.90;;;;;;5550553;25;20009;-45
2024/04/18 12:05:21;;;;;;;11.68;7.75;;;13.00;99.90;;;;;;5559452;25;20659;-45
2024/04/18 12:07:48;;;;;;;8.65;7.85;;;12.80;99.90;;;;;;5542938;25;20033;-45
2024/04/18 12:10:29;;;;;;;8.13;7.32;;;13.30;99.90;;;;;;5557181;25;20096;-45
2024/04/18 12:13:02;;;;;;;9.52;7.82;;;13.60;99.90;;;;;;5553057;25;20006;-44
2024/04/18 12:15:31;;;;;;;7.93;7.13;;;13.80;99.90;;;;;;5556748;25;20008;-49
2024/04/18 12:17:58;;;;;;;10.52;7.15;;;14.30;99.90;;;;;;5547174;25;20320;-46
2024/04/18 12:20:26;;;;;;;7.88;7.18;;;15.00;99.90;;;;;;5545298;25;20008;-44
2024/04/18 12:22:53;;;;;;;12.88;7.30;;;14.40;99.90;;;;;;5551286;25;20010;-45
2024/04/18 12:25:20;;;;;;;7.40;6.70;;;15.10;99.90;;;;;;5545346;25;19997;-47
2024/04/18 12:27:47;;;;;;;9.63;7.72;;;15.10;99.90;;;;;;5542978;25;20004;-42
2024/04/18 12:30:30;;;;;;;7.32;6.50;;;15.50;99.90;;;;;;5546276;25;20496;-42
2024/04/18 12:33:16;;;;;;;7.07;6.47;;;16.60;99.90;;;;;;5555279;25;19997;-44
2024/04/18 12:35:43;;;;;;;7.63;6.93;;;16.90;99.90;;;;;;5512196;25;20190;-49
2024/04/18 12:38:10;;;;;;;7.63;6.35;;;16.80;99.90;;;;;;5549853;25;20007;-48
2024/04/18 12:40:44;;;;;;;7.15;6.40;;;16.60;99.90;;;;;;5550946;25;20077;-45
2024/04/18 12:43:14;;;;;;;7.10;6.43;;;17.40;99.90;;;;;;5542281;25;20013;-45
2024/04/18 12:45:54;;;;;;;;;;;17.20;99.90;;;;;;5554152;25;20516;-44
2024/04/18 12:48:49;;;;;;;7.40;6.70;;;17.20;99.90;;;;;;5549128;25;20373;-47
2024/04/18 12:51:16;;;;;;;7.15;6.55;;;16.70;97.90;;;;;;5545890;25;20001;-44
2024/04/18 12:53:43;;;;;;;8.07;7.28;;;16.60;96.70;;;;;;5560911;25;20049;-47
2024/04/18 12:56:10;;;;;;;7.60;6.78;;;17.00;97.80;;;;;;5545536;25;20053;-45
2024/04/18 12:58:41;;;;;;;6.50;5.90;;;18.10;94.10;;;;;;5548998;25;20081;-47
2024/04/18 13:01:09;;;;;;;5.80;5.30;;;19.00;95.20;;;;;;5550474;25;20126;-48
2024/04/18 13:03:41;;;;;;;6.65;6.05;;;19.30;90.00;;;;;;5552213;25;20013;-44
2024/04/18 13:06:27;;;;;;;5.97;5.47;;;19.30;86.70;;;;;;5543206;25;20449;-44
2024/04/18 13:08:56;;;;;;;6.07;5.47;;;19.50;90.00;;;;;;5542590;25;20004;-50
2024/04/18 13:11:42;;;;;;;7.10;6.40;;;20.10;90.60;;;;;;5541795;25;20010;-43
2024/04/18 13:14:09;;;;;;;6.40;5.80;;;18.30;85.30;;;;;;5551219;25;20000;-48
2024/04/18 13:16:36;;;;;;;6.80;6.20;;;18.90;84.40;;;;;;5559929;25;20012;-44
2024/04/18 13:19:11;;;;;;;8.07;6.82;;;19.60;81.60;;;;;;5544043;25;20001;-46